Time;durP1;ratioP1;P1;durP2;ratioP2;P2;SDS_P1;SDS_P2;PMS_P1;PMS_P2;Temp;Humidity;BMP_temperature;BMP_pressure;BME280_temperature;BME280_humidity;BME280_pressure;Samples;Min_cycle;Max_cycle;Signal;HPM_P1;HPM_P2
2021/04/19 00:00:10;;;;;;;;;;;;;;;5.32;81.31;101948.72;4973944;28;19922;-65
2021/04/19 00:02:35;;;;;;;;;;;;;;;5.33;81.18;101950.41;4956916;28;19925;-65
2021/04/19 00:05:01;;;;;;;;;;;;;;;5.28;80.93;101947.22;4956781;28;19922;-65
2021/04/19 00:07:26;;;;;;;;;;;;;;;5.29;81.40;101946.25;4973626;28;20326;-65
2021/04/19 00:09:51;;;;;;;;;;;;;;;5.29;81.35;101946.25;4973587;28;19968;-65
2021/04/19 00:12:16;;;;;;;;;;;;;;;5.24;81.39;101938.63;4973687;28;20359;-65
2021/04/19 00:14:42;;;;;;;;;;;;;;;5.23;81.67;101944.00;4956676;28;19914;-65
2021/04/19 00:17:07;;;;;;;;;;;;;;;5.21;81.83;101951.19;4973674;28;19914;-65
2021/04/19 00:19:32;;;;;;;;;;;;;;;5.20;82.12;101944.22;4972420;28;19980;-65
2021/04/19 00:21:57;;;;;;;;;;;;;;;5.13;82.09;101933.16;4973640;28;19969;-65
2021/04/19 00:24:23;;;;;;;;;;;;;;;5.04;82.21;101937.25;4973265;28;19918;-65
2021/04/19 00:26:48;;;;;;;;;;;;;;;5.01;82.34;101939.22;4973469;28;19914;-65
2021/04/19 00:29:13;;;;;;;;;;;;;;;4.97;82.72;101940.38;4973180;28;19976;-65
2021/04/19 00:31:39;;;;;;;;;;;;;;;4.92;82.81;101938.03;4973504;28;20259;-65
2021/04/19 00:34:04;;;;;;;;;;;;;;;4.93;83.14;101934.44;4972382;28;19970;-65
2021/04/19 00:36:30;;;;;;;;;;;;;;;5.00;82.61;101943.66;4973306;28;19921;-65
2021/04/19 00:38:55;;;;;;;;;;;;;;;4.97;82.17;101943.88;4972927;28;19945;-65
2021/04/19 00:41:21;;;;;;;;;;;;;;;4.87;82.96;101953.34;4973638;28;19918;-65
2021/04/19 00:43:46;;;;;;;;;;;;;;;4.86;83.37;101947.19;4956137;28;19921;-65
2021/04/19 00:46:12;;;;;;;;;;;;;;;4.89;83.46;101956.72;4973149;28;19920;-65
2021/04/19 00:48:37;;;;;;;;;;;;;;;4.90;83.45;101947.84;4972859;28;19940;-65
2021/04/19 00:51:04;;;;;;;;;;;;;;;4.88;83.42;101954.19;4972320;28;19968;-64
2021/04/19 00:53:29;;;;;;;;;;;;;;;4.89;83.33;101950.59;4972112;28;19957;-65
2021/04/19 00:55:54;;;;;;;;;;;;;;;4.89;83.44;101950.59;4972104;28;20276;-64
2021/04/19 00:58:22;;;;;;;;;;;;;;;4.87;83.63;101953.34;4972757;28;20369;-65
2021/04/19 01:00:47;;;;;;;;;;;;;;;4.82;83.52;101952.75;4972948;28;20237;-65
2021/04/19 01:03:13;;;;;;;;;;;;;;;4.79;83.81;101945.03;4973020;28;19925;-65
2021/04/19 01:05:39;;;;;;;;;;;;;;;4.78;83.59;101952.13;4955923;28;19929;-65
2021/04/19 01:08:08;;;;;;;;;;;;;;;4.72;83.81;101943.72;4955691;28;19914;-65
2021/04/19 01:10:35;;;;;;;;;;;;;;;4.62;84.03;101948.72;4972973;28;20332;-65
2021/04/19 01:13:00;;;;;;;;;;;;;;;4.60;84.10;101946.16;4971978;28;19913;-65
2021/04/19 01:15:26;;;;;;;;;;;;;;;4.61;84.16;101947.88;4972758;28;20308;-65
2021/04/19 01:17:53;;;;;;;;;;;;;;;4.62;84.75;101949.56;4955893;28;19914;-65
2021/04/19 01:20:21;;;;;;;;;;;;;;;4.65;84.93;101948.53;4955945;28;19914;-65
2021/04/19 01:22:48;;;;;;;;;;;;;;;4.74;84.97;101950.59;4971722;28;19914;-65
2021/04/19 01:25:17;;;;;;;;;;;;;;;4.71;84.90;101942.88;4972535;28;19918;-65
2021/04/19 01:27:42;;;;;;;;;;;;;;;4.74;85.14;101950.59;4972436;28;19918;-65
2021/04/19 01:30:09;;;;;;;;;;;;;;;4.80;85.52;101954.66;4972208;28;20435;-65
2021/04/19 01:32:36;;;;;;;;;;;;;;;4.88;85.33;101955.03;4975780;28;20013;-65
2021/04/19 01:35:02;;;;;;;;;;;;;;;4.86;85.86;101951.63;4975722;28;19978;-65
2021/04/19 01:37:27;;;;;;;;;;;;;;;4.94;85.97;101956.44;4975324;28;19914;-65
2021/04/19 01:39:53;;;;;;;;;;;;;;;4.90;86.13;101963.75;4975595;28;19914;-65
2021/04/19 01:42:18;;;;;;;;;;;;;;;4.98;86.37;101958.78;4976538;28;19926;-65
2021/04/19 01:44:43;;;;;;;;;;;;;;;5.03;86.35;101962.03;4975493;28;20012;-64
2021/04/19 01:47:10;;;;;;;;;;;;;;;5.07;86.53;101960.88;4975477;28;19984;-65
2021/04/19 01:49:38;;;;;;;;;;;;;;;5.11;86.35;101961.53;4975167;28;20009;-64
2021/04/19 01:52:03;;;;;;;;;;;;;;;5.11;86.58;101961.53;4975153;28;20000;-65
2021/04/19 01:54:29;;;;;;;;;;;;;;;5.15;86.39;101959.53;4959378;28;19914;-65
2021/04/19 01:56:55;;;;;;;;;;;;;;;5.12;86.58;101962.38;4959175;28;19968;-65
2021/04/19 01:59:22;;;;;;;;;;;;;;;5.11;86.77;101956.25;4975904;28;20410;-65
2021/04/19 02:02:08;;;;;;;;;;;;;;;5.13;86.98;101953.47;4975189;28;19914;-65
2021/04/19 02:04:45;;;;;;;;;;;;;;;5.15;86.98;101956.88;4975960;28;19928;-65
2021/04/19 02:07:22;;;;;;;;;;;;;;;5.22;87.02;101961.72;4975923;28;20654;-65
2021/04/19 02:09:54;;;;;;;;;;;;;;;5.28;87.00;101952.50;4974906;28;20377;-65
2021/04/19 02:12:26;;;;;;;;;;;;;;;5.30;87.05;101950.63;4974957;28;19914;-65
2021/04/19 02:14:54;;;;;;;;;;;;;;;5.30;87.16;101963.84;4974812;28;19925;-65
2021/04/19 02:17:27;;;;;;;;;;;;;;;5.22;87.49;101952.88;4975798;28;20021;-65
2021/04/19 02:20:18;;;;;;;;;;;;;;;5.15;87.63;101954.22;4958772;28;19914;-65
2021/04/19 02:22:46;;;;;;;;;;;;;;;5.27;88.66;101966.72;4953078;28;19925;-65
2021/04/19 02:25:18;;;;;;;;;;;;;;;5.28;88.16;101958.66;4974562;28;20004;-65
2021/04/19 02:27:58;;;;;;;;;;;;;;;5.33;88.10;101961.00;4975261;28;19914;-65
2021/04/19 02:30:26;;;;;;;;;;;;;;;5.37;88.33;101970.47;4958756;28;19957;-65
2021/04/19 02:32:52;;;;;;;;;;;;;;;5.40;88.35;101961.47;4974544;28;19918;-65
2021/04/19 02:35:22;;;;;;;;;;;;;;;5.32;88.24;101961.97;4974525;28;19918;-65
2021/04/19 02:38:01;;;;;;;;;;;;;;;5.44;88.30;101957.69;4974172;28;19914;-64
2021/04/19 02:40:32;;;;;;;;;;;;;;;5.41;88.03;101958.72;4974440;28;20004;-65
2021/04/19 02:42:59;;;;;;;;;;;;;;;5.40;88.43;101950.88;4973226;28;20033;-65
2021/04/19 02:45:24;;;;;;;;;;;;;;;5.21;89.09;101951.19;4974389;28;19922;-65
2021/04/19 02:48:01;;;;;;;;;;;;;;;5.40;89.29;101958.81;4974163;28;19917;-65
2021/04/19 02:50:43;;;;;;;;;;;;;;;5.41;89.27;101948.13;4974411;28;19926;-65
2021/04/19 02:53:08;;;;;;;;;;;;;;;5.46;89.11;101953.97;4974318;28;19918;-65
2021/04/19 02:55:35;;;;;;;;;;;;;;;5.52;89.02;101949.22;4974300;28;19914;-65
2021/04/19 02:58:02;;;;;;;;;;;;;;;5.60;89.00;101949.59;4957846;28;19917;-65
2021/04/19 03:00:33;;;;;;;;;;;;;;;5.41;88.84;101953.44;4974137;28;19922;-65
2021/04/19 03:03:00;;;;;;;;;;;;;;;5.51;89.25;101953.69;4974004;28;19997;-65
2021/04/19 03:05:28;;;;;;;;;;;;;;;5.53;89.03;101956.22;4974009;28;20374;-65
2021/04/19 03:07:57;;;;;;;;;;;;;;;5.50;89.22;101952.84;4973669;28;20329;-65
2021/04/19 03:10:24;;;;;;;;;;;;;;;5.57;89.05;101949.75;4973942;28;19914;-65
2021/04/19 03:12:55;;;;;;;;;;;;;;;5.55;88.82;101949.88;4973767;28;19984;-65
2021/04/19 03:15:23;;;;;;;;;;;;;;;5.47;89.05;101942.41;4973763;28;20032;-65
2021/04/19 03:18:02;;;;;;;;;;;;;;;5.52;88.96;101943.91;4959425;28;19913;-65
2021/04/19 03:20:55;;;;;;;;;;;;;;;5.52;88.67;101946.56;4973776;28;19969;-65
2021/04/19 03:23:25;;;;;;;;;;;;;;;5.45;88.68;101940.81;4974567;28;19914;-65
2021/04/19 03:25:54;;;;;;;;;;;;;;;5.47;88.74;101936.28;4973606;28;19918;-65
2021/04/19 03:28:23;;;;;;;;;;;;;;;5.43;88.51;101946.25;4957510;28;19921;-65
2021/04/19 03:30:52;;;;;;;;;;;;;;;5.39;88.54;101942.09;4974652;28;19914;-65
2021/04/19 03:33:20;;;;;;;;;;;;;;;5.39;88.49;101944.72;4973595;28;20271;-65
2021/04/19 03:35:50;;;;;;;;;;;;;;;5.33;88.37;101939.81;4973543;28;19992;-65
2021/04/19 03:38:19;;;;;;;;;;;;;;;5.28;88.32;101934.81;4972979;28;19914;-65
2021/04/19 03:40:47;;;;;;;;;;;;;;;5.25;88.21;101934.19;4957501;28;19918;-65
2021/04/19 03:43:17;;;;;;;;;;;;;;;5.19;88.75;101937.22;4957861;28;19933;-65
2021/04/19 03:46:06;;;;;;;;;;;;;;;5.23;88.50;101933.44;4974165;28;20717;-65
2021/04/19 03:48:46;;;;;;;;;;;;;;;5.22;88.40;101939.66;4958554;28;19925;-64
2021/04/19 03:51:22;;;;;;;;;;;;;;;5.12;88.12;101931.44;4973248;28;20332;-65
2021/04/19 03:53:53;;;;;;;;;;;;;;;5.10;88.27;101932.50;4973855;28;19913;-65
2021/04/19 03:56:21;;;;;;;;;;;;;;;5.10;88.21;101935.16;4973051;28;19924;-65
2021/04/19 03:59:02;;;;;;;;;;;;;;;5.03;87.79;101937.34;4972735;28;19914;-65
2021/04/19 04:01:34;;;;;;;;;;;;;;;4.91;87.68;101931.03;4957888;28;19914;-65
2021/04/19 04:04:01;;;;;;;;;;;;;;;4.82;87.41;101934.25;4972830;28;20259;-65
2021/04/19 04:06:47;;;;;;;;;;;;;;;4.77;87.23;101936.34;4966802;28;20252;-65
2021/04/19 04:09:15;;;;;;;;;;;;;;;4.70;87.27;101929.72;4956774;28;19914;-65
2021/04/19 04:11:42;;;;;;;;;;;;;;;4.68;87.65;101931.59;4972684;28;19925;-64
2021/04/19 04:14:23;;;;;;;;;;;;;;;4.64;87.26;101937.09;4972847;28;20244;-65
2021/04/19 04:16:48;;;;;;;;;;;;;;;4.64;87.43;101934.47;4972686;28;19914;-65
2021/04/19 04:19:19;;;;;;;;;;;;;;;4.60;87.29;101940.88;4972626;28;20318;-65
2021/04/19 04:21:55;;;;;;;;;;;;;;;4.58;87.30;101932.19;4957851;28;19964;-65
2021/04/19 04:24:37;;;;;;;;;;;;;;;4.55;87.22;101934.19;4973419;28;19918;-65
2021/04/19 04:27:04;;;;;;;;;;;;;;;4.57;87.34;101932.28;4973328;28;19913;-65
2021/04/19 04:29:30;;;;;;;;;;;;;;;4.57;87.38;101930.50;4972209;28;19997;-64
2021/04/19 04:32:12;;;;;;;;;;;;;;;4.59;87.28;101933.91;4958858;28;19984;-65
2021/04/19 04:34:39;;;;;;;;;;;;;;;4.60;86.84;101940.03;4972346;28;19914;-65
2021/04/19 04:37:05;;;;;;;;;;;;;;;4.63;86.96;101939.84;4972434;28;19917;-65
2021/04/19 04:39:38;;;;;;;;;;;;;;;4.57;86.21;101946.38;4972169;28;19976;-65
2021/04/19 04:42:04;;;;;;;;;;;;;;;4.68;86.50;101947.47;4972368;28;19914;-65
2021/04/19 04:44:37;;;;;;;;;;;;;;;4.68;86.17;101945.69;4956164;28;20005;-65
2021/04/19 04:47:08;;;;;;;;;;;;;;;4.73;86.07;101950.69;4972187;28;20354;-65
2021/04/19 04:49:42;;;;;;;;;;;;;;;4.82;86.15;101944.81;4971878;28;19914;-65
2021/04/19 04:52:09;;;;;;;;;;;;;;;4.92;86.48;101950.41;4956269;28;19949;-64
2021/04/19 04:54:37;;;;;;;;;;;;;;;5.02;86.52;101944.44;4973060;28;20848;-65
2021/04/19 04:57:03;;;;;;;;;;;;;;;5.13;86.22;101946.41;4972991;28;19914;-65
2021/04/19 04:59:29;;;;;;;;;;;;;;;5.31;86.20;101946.16;4972604;28;19941;-65
2021/04/19 05:01:56;;;;;;;;;;;;;;;5.42;85.71;101949.81;4956046;28;19949;-65
2021/04/19 05:04:22;;;;;;;;;;;;;;;5.55;85.83;101946.34;4972696;28;19925;-65
2021/04/19 05:06:47;;;;;;;;;;;;;;;5.60;85.71;101942.47;4972455;28;19914;-64
2021/04/19 05:09:12;;;;;;;;;;;;;;;5.74;85.80;101944.22;4972677;28;19914;-65
2021/04/19 05:11:38;;;;;;;;;;;;;;;5.85;85.45;101943.47;4972826;28;19925;-65
2021/04/19 05:14:04;;;;;;;;;;;;;;;5.92;84.68;101948.28;4972811;28;19925;-65
2021/04/19 05:16:30;;;;;;;;;;;;;;;6.05;84.46;101947.50;4955883;28;19918;-65
2021/04/19 05:19:02;;;;;;;;;;;;;;;5.95;83.80;101935.78;4972583;28;20347;-65
2021/04/19 05:21:28;;;;;;;;;;;;;;;6.10;83.98;101945.38;4972916;28;20381;-73
2021/04/19 05:23:54;;;;;;;;;;;;;;;6.21;83.60;101942.84;4955691;28;19918;-72
2021/04/19 05:26:20;;;;;;;;;;;;;;;6.47;82.94;101934.91;4955772;28;20025;-74
2021/04/19 05:28:46;;;;;;;;;;;;;;;7.21;81.84;101943.78;4971449;28;20024;-73
2021/04/19 05:31:11;;;;;;;;;;;;;;;7.89;79.24;101944.09;4955805;28;19973;-73
2021/04/19 05:33:37;;;;;;;;;;;;;;;8.54;73.05;101940.03;4971698;28;20327;-73
2021/04/19 05:36:09;;;;;;;;;;;;;;;9.01;74.59;101938.06;4971705;28;19924;-73
2021/04/19 05:38:35;;;;;;;;;;;;;;;9.00;73.17;101947.06;4955417;28;19964;-73
2021/04/19 05:41:01;;;;;;;;;;;;;;;8.60;74.49;101944.88;4972600;28;19918;-73
2021/04/19 05:43:26;;;;;;;;;;;;;;;8.53;73.78;101949.00;4972450;28;19929;-73
2021/04/19 05:45:52;;;;;;;;;;;;;;;8.82;74.01;101960.00;4955576;28;19910;-73
2021/04/19 05:48:18;;;;;;;;;;;;;;;8.87;72.75;101965.81;4955429;28;20005;-73
2021/04/19 05:50:47;;;;;;;;;;;;;;;8.94;72.69;101967.00;4972581;28;20001;-65
2021/04/19 05:53:12;;;;;;;;;;;;;;;9.44;70.60;101961.25;4972604;28;19977;-65
2021/04/19 05:55:38;;;;;;;;;;;;;;;9.64;69.63;101957.78;4955513;28;19921;-65
2021/04/19 05:58:21;;;;;;;;;;;;;;;10.19;67.82;101957.66;4971213;28;19914;-65
2021/04/19 06:00:52;;;;;;;;;;;;;;;10.64;66.62;101956.53;4972565;28;19913;-65
2021/04/19 06:03:36;;;;;;;;;;;;;;;10.70;64.16;101959.53;4955524;28;20000;-65
2021/04/19 06:06:10;;;;;;;;;;;;;;;10.98;65.40;101968.63;4971471;28;20339;-65
2021/04/19 06:08:41;;;;;;;;;;;;;;;11.38;61.25;101962.41;4955229;28;19929;-65
2021/04/19 06:11:20;;;;;;;;;;;;;;;11.68;61.78;101968.63;4971525;28;20266;-65
2021/04/19 06:13:55;;;;;;;;;;;;;;;12.17;62.03;101966.78;4956647;28;20339;-65
2021/04/19 06:16:21;;;;;;;;;;;;;;;12.40;59.69;101972.69;4973102;28;19929;-65
2021/04/19 06:18:47;;;;;;;;;;;;;;;12.49;59.64;101967.47;4975414;28;19913;-65
2021/04/19 06:21:13;;;;;;;;;;;;;;;12.50;57.69;101969.97;4975726;28;20270;-65
2021/04/19 06:23:42;;;;;;;;;;;;;;;11.98;61.08;101964.16;4958638;28;19919;-65
2021/04/19 06:26:08;;;;;;;;;;;;;;;12.19;58.20;101972.03;4975270;28;20355;-65
2021/04/19 06:28:33;;;;;;;;;;;;;;;12.29;58.49;101966.66;4974146;28;19913;-65
2021/04/19 06:30:59;;;;;;;;;;;;;;;12.56;58.47;101968.56;4974581;28;19917;-65
2021/04/19 06:33:26;;;;;;;;;;;;;;;12.54;58.37;101974.06;4975472;28;19922;-65
2021/04/19 06:35:51;;;;;;;;;;;;;;;12.35;58.89;101971.44;4974541;28;19922;-65
2021/04/19 06:38:17;;;;;;;;;;;;;;;12.19;59.77;101978.22;4974158;28;19913;-65
2021/04/19 06:40:43;;;;;;;;;;;;;;;12.04;59.75;101971.63;4975489;28;20029;-65
2021/04/19 06:43:09;;;;;;;;;;;;;;;11.90;59.26;101977.41;4974330;28;20520;-65
2021/04/19 06:45:35;;;;;;;;;;;;;;;12.33;59.06;101984.13;4975267;28;19929;-65
2021/04/19 06:48:03;;;;;;;;;;;;;;;12.48;58.06;101980.00;4973995;28;20418;-65
2021/04/19 06:50:28;;;;;;;;;;;;;;;12.49;59.69;101973.66;4975362;28;19921;-65
2021/04/19 06:52:54;;;;;;;;;;;;;;;13.05;57.83;101972.72;4975173;28;19914;-65
2021/04/19 06:55:19;;;;;;;;;;;;;;;13.06;57.48;101977.13;4958275;28;20655;-65
2021/04/19 06:57:48;;;;;;;;;;;;;;;12.38;58.67;101981.84;4973845;28;19918;-65
2021/04/19 07:00:14;;;;;;;;;;;;;;;12.74;56.70;101972.16;4958073;28;20628;-65
2021/04/19 07:02:50;;;;;;;;;;;;;;;12.40;59.57;101974.53;4975060;28;20012;-65
2021/04/19 07:05:19;;;;;;;;;;;;;;;12.54;59.65;101974.06;4975066;28;19933;-65
2021/04/19 07:08:05;;;;;;;;;;;;;;;12.34;59.07;101969.72;4973795;28;19933;-65
2021/04/19 07:10:32;;;;;;;;;;;;;;;12.83;58.19;101976.66;4974651;28;19918;-65
2021/04/19 07:12:59;;;;;;;;;;;;;;;12.81;58.25;101969.75;4973823;28;19929;-65
2021/04/19 07:15:26;;;;;;;;;;;;;;;12.51;58.35;101971.69;4974876;28;19964;-65
2021/04/19 07:17:51;;;;;;;;;;;;;;;12.76;57.58;101962.16;4974562;28;19914;-65
2021/04/19 07:20:17;;;;;;;;;;;;;;;12.97;57.44;101969.97;4973768;28;19914;-65
2021/04/19 07:22:42;;;;;;;;;;;;;;;12.71;58.37;101976.97;4973692;28;19969;-66
2021/04/19 07:25:08;;;;;;;;;;;;;;;12.14;58.48;101974.28;4974449;28;19926;-65
2021/04/19 07:27:37;;;;;;;;;;;;;;;11.07;62.85;101971.47;4973026;28;20347;-65
2021/04/19 07:30:02;;;;;;;;;;;;;;;12.34;60.84;101978.63;4974313;28;19914;-66
2021/04/19 07:32:39;;;;;;;;;;;;;;;13.01;59.14;101976.69;4973661;28;19969;-65
2021/04/19 07:35:05;;;;;;;;;;;;;;;13.07;58.22;101976.09;4957496;28;20000;-73
2021/04/19 07:37:31;;;;;;;;;;;;;;;12.98;57.32;101979.69;4974151;28;19917;-73
2021/04/19 07:39:56;;;;;;;;;;;;;;;12.99;59.50;101978.69;4957352;28;20337;-73
2021/04/19 07:42:22;;;;;;;;;;;;;;;12.77;59.73;101976.38;4957404;28;19913;-73
2021/04/19 07:44:49;;;;;;;;;;;;;;;12.50;60.38;101969.97;4974246;28;20427;-73
2021/04/19 07:47:33;;;;;;;;;;;;;;;12.28;61.69;101973.00;4974313;28;20251;-73
2021/04/19 07:49:59;;;;;;;;;;;;;;;11.82;62.79;101978.94;4973240;28;19913;-73
2021/04/19 07:52:26;;;;;;;;;;;;;;;11.81;62.85;101977.22;4974025;28;20371;-73
2021/04/19 07:55:05;;;;;;;;;;;;;;;11.74;63.29;101972.59;4957198;28;19914;-73
2021/04/19 07:57:31;;;;;;;;;;;;;;;12.34;61.97;101984.00;4972805;28;19964;-73
2021/04/19 07:59:56;;;;;;;;;;;;;;;12.41;60.96;101977.06;4973070;28;19914;-73
2021/04/19 08:02:21;;;;;;;;;;;;;;;12.50;60.53;101969.13;4972705;28;19933;-73
2021/04/19 08:04:56;;;;;;;;;;;;;;;12.73;60.76;101972.31;4956725;28;19917;-73
2021/04/19 08:07:22;;;;;;;;;;;;;;;13.27;58.62;101976.00;4973030;28;20447;-73
2021/04/19 08:09:55;;;;;;;;;;;;;;;13.07;59.21;101978.78;4973505;28;19972;-73
2021/04/19 08:12:30;;;;;;;;;;;;;;;13.25;58.00;101969.94;4972720;28;19925;-73
2021/04/19 08:14:56;;;;;;;;;;;;;;;13.21;58.44;101971.25;4973613;28;19949;-73
2021/04/19 08:17:26;;;;;;;;;;;;;;;12.81;58.89;101973.28;4972718;28;19957;-73
2021/04/19 08:19:51;;;;;;;;;;;;;;;12.27;59.86;101976.66;4973717;28;19914;-73
2021/04/19 08:22:18;;;;;;;;;;;;;;;12.40;60.00;101979.88;4973614;28;20267;-73
2021/04/19 08:24:43;;;;;;;;;;;;;;;12.94;59.47;101974.75;4973422;28;19917;-72
2021/04/19 08:27:17;;;;;;;;;;;;;;;13.19;57.93;101982.13;4956566;28;20240;-73
2021/04/19 08:29:45;;;;;;;;;;;;;;;13.68;57.13;101965.75;4972344;28;19914;-73
2021/04/19 08:32:12;;;;;;;;;;;;;;;13.94;56.44;101971.16;4972474;28;19976;-73
2021/04/19 08:34:38;;;;;;;;;;;;;;;13.59;58.04;101969.34;4972300;28;19918;-73
2021/04/19 08:37:03;;;;;;;;;;;;;;;14.22;56.47;101963.84;4972378;28;19914;-73
2021/04/19 08:39:33;;;;;;;;;;;;;;;14.96;53.00;101961.59;4971636;28;20143;-73
2021/04/19 08:41:59;;;;;;;;;;;;;;;15.20;53.04;101953.63;4955945;28;19914;-73
2021/04/19 08:44:25;;;;;;;;;;;;;;;14.82;53.54;101956.81;4973003;28;20473;-73
2021/04/19 08:46:51;;;;;;;;;;;;;;;14.10;55.96;101962.41;4973284;28;20001;-73
2021/04/19 08:49:16;;;;;;;;;;;;;;;15.57;52.14;101957.75;4972811;28;20368;-73
2021/04/19 08:51:42;;;;;;;;;;;;;;;16.25;49.85;101958.47;4956075;28;20012;-73
2021/04/19 08:54:07;;;;;;;;;;;;;;;16.04;50.32;101964.38;4955871;28;19921;-73
2021/04/19 08:56:32;;;;;;;;;;;;;;;16.00;50.42;101961.16;4972142;28;19918;-73
2021/04/19 08:58:59;;;;;;;;;;;;;;;16.83;48.95;101960.03;4972736;28;19914;-73
2021/04/19 09:01:27;;;;;;;;;;;;;;;16.79;48.88;101961.41;4973019;28;19914;-73
2021/04/19 09:04:02;;;;;;;;;;;;;;;16.66;47.53;101961.91;4956049;28;19957;-73
2021/04/19 09:06:38;;;;;;;;;;;;;;;16.85;47.87;101954.44;4956050;28;20259;-73
2021/04/19 09:09:03;;;;;;;;;;;;;;;17.42;46.28;101961.41;4972748;28;19914;-73
2021/04/19 09:11:29;;;;;;;;;;;;;;;16.15;49.60;101952.41;4972755;28;19932;-73
2021/04/19 09:14:03;;;;;;;;;;;;;;;17.47;48.77;101961.75;4972011;28;19918;-73
2021/04/19 09:16:33;;;;;;;;;;;;;;;17.52;47.85;101957.47;4955930;28;19914;-73
2021/04/19 09:18:59;;;;;;;;;;;;;;;17.88;47.30;101950.66;4972644;28;19918;-73
2021/04/19 09:21:31;;;;;;;;;;;;;;;17.75;45.67;101944.97;4972806;28;19988;-73
2021/04/19 09:23:56;;;;;;;;;;;;;;;18.04;45.95;101944.28;4972616;28;19918;-72
2021/04/19 09:26:41;;;;;;;;;;;;;;;18.18;46.17;101953.44;4955652;28;20314;-73
2021/04/19 09:29:06;;;;;;;;;;;;;;;17.96;46.61;101950.59;4971530;28;19965;-73
2021/04/19 09:31:50;;;;;;;;;;;;;;;18.01;44.81;101956.31;4972749;28;19922;-73
2021/04/19 09:34:15;;;;;;;;;;;;;;;18.97;45.46;101951.09;4971731;28;19985;-73
2021/04/19 09:36:51;;;;;;;;;;;;;;;18.77;44.72;101948.09;4972589;28;20383;-73
2021/04/19 09:39:36;;;;;;;;;;;;;;;18.80;43.33;101947.75;4972439;28;19941;-73
2021/04/19 09:42:01;;;;;;;;;;;;;;;19.44;44.53;101940.78;4962123;28;19934;-73
2021/04/19 09:44:27;;;;;;;;;;;;;;;19.59;43.15;101949.69;4972630;28;19918;-73
2021/04/19 09:46:52;;;;;;;;;;;;;;;18.90;43.97;101940.16;4971645;28;19914;-73
2021/04/19 09:49:20;;;;;;;;;;;;;;;18.27;45.22;101933.44;4971283;28;19918;-73
2021/04/19 09:51:45;;;;;;;;;;;;;;;19.26;43.95;101943.91;4974022;28;20414;-73
2021/04/19 09:54:22;;;;;;;;;;;;;;;19.01;45.30;101930.75;4975353;28;20006;-73
2021/04/19 09:56:49;;;;;;;;;;;;;;;19.33;43.23;101931.28;4976281;28;20008;-73
2021/04/19 09:59:15;;;;;;;;;;;;;;;19.65;44.42;101929.97;4975920;28;19914;-73
2021/04/19 10:01:45;;;;;;;;;;;;;;;19.51;43.60;101922.75;4975133;28;19914;-73
2021/04/19 10:04:10;;;;;;;;;;;;;;;19.65;45.04;101932.66;4975039;28;20310;-73
2021/04/19 10:06:37;;;;;;;;;;;;;;;20.16;43.28;101928.97;4959069;28;19914;-73
2021/04/19 10:09:06;;;;;;;;;;;;;;;20.21;43.89;101929.22;4974844;28;19914;-73
2021/04/19 10:11:33;;;;;;;;;;;;;;;20.54;43.11;101926.69;4975051;28;19914;-74
2021/04/19 10:14:05;;;;;;;;;;;;;;;20.74;41.78;101926.81;4975917;28;19941;-74
2021/04/19 10:16:37;;;;;;;;;;;;;;;21.35;40.89;101926.00;4975984;28;19929;-74
2021/04/19 10:19:03;;;;;;;;;;;;;;;21.12;40.50;101922.78;4974682;28;20420;-74
2021/04/19 10:21:29;;;;;;;;;;;;;;;20.81;41.44;101926.84;4958811;28;19917;-74
2021/04/19 10:23:56;;;;;;;;;;;;;;;20.82;40.61;101923.94;4975646;28;19961;-74
2021/04/19 10:26:29;;;;;;;;;;;;;;;20.83;39.85;101922.91;4974837;28;20323;-74
2021/04/19 10:28:54;;;;;;;;;;;;;;;20.35;41.67;101916.59;4974359;28;20294;-74
2021/04/19 10:31:21;;;;;;;;;;;;;;;21.28;41.37;101917.00;4975636;28;19941;-72
2021/04/19 10:33:54;;;;;;;;;;;;;;;20.87;40.08;101905.19;4975561;28;19984;-71
2021/04/19 10:36:26;;;;;;;;;;;;;;;20.77;40.76;101909.31;4958347;28;20048;-72
2021/04/19 10:38:53;;;;;;;;;;;;;;;20.86;41.77;101902.66;4958140;28;19914;-72
2021/04/19 10:41:32;;;;;;;;;;;;;;;20.79;41.11;101899.94;4975348;28;19917;-72
2021/04/19 10:43:57;;;;;;;;;;;;;;;20.71;41.78;101902.81;4975372;28;20463;-73
2021/04/19 10:46:32;;;;;;;;;;;;;;;20.87;40.37;101899.75;4974458;28;20264;-72
2021/04/19 10:49:00;;;;;;;;;;;;;;;20.95;40.23;101896.00;4974159;28;19914;-72
2021/04/19 10:51:26;;;;;;;;;;;;;;;20.03;41.07;101898.00;4975224;28;20023;-73
2021/04/19 10:53:52;;;;;;;;;;;;;;;20.34;42.42;101904.03;4974249;28;19914;-73
2021/04/19 10:56:22;;;;;;;;;;;;;;;20.23;42.21;101900.03;4974372;28;19918;-73
2021/04/19 10:58:48;;;;;;;;;;;;;;;20.54;41.53;101901.47;4973909;28;20374;-73
2021/04/19 11:01:19;;;;;;;;;;;;;;;20.67;41.14;101896.09;4958086;28;19925;-74
2021/04/19 11:03:44;;;;;;;;;;;;;;;20.44;41.81;101901.81;4974089;28;20347;-74
2021/04/19 11:06:10;;;;;;;;;;;;;;;20.45;41.14;101900.78;4974087;28;19969;-74
2021/04/19 11:09:05;;;;;;;;;;;;;;;20.54;41.10;101899.56;4974704;28;19933;-74
2021/04/19 11:11:30;;;;;;;;;;;;;;;20.38;41.91;101899.91;4961294;28;19922;-74
2021/04/19 11:14:10;;;;;;;;;;;;;;;20.55;41.68;101900.41;4973926;28;20291;-74
2021/04/19 11:16:36;;;;;;;;;;;;;;;20.47;40.39;101904.13;4974671;28;19913;-74
2021/04/19 11:19:01;;;;;;;;;;;;;;;19.77;41.32;101909.47;4974493;28;19941;-74
2021/04/19 11:21:35;;;;;;;;;;;;;;;19.89;42.08;101909.78;4974733;28;19918;-74
2021/04/19 11:24:19;;;;;;;;;;;;;;;20.17;40.91;101904.34;4957623;28;19928;-74
2021/04/19 11:26:44;;;;;;;;;;;;;;;19.76;42.58;101902.38;4973749;28;19917;-74
2021/04/19 11:29:09;;;;;;;;;;;;;;;19.86;41.84;101901.22;4974263;28;20339;-75
2021/04/19 11:31:39;;;;;;;;;;;;;;;19.91;40.71;101899.56;4957713;28;19984;-74
2021/04/19 11:34:11;;;;;;;;;;;;;;;20.45;39.51;101906.19;4973621;28;19921;-74
2021/04/19 11:36:40;;;;;;;;;;;;;;;20.17;40.66;101898.94;4974481;28;20035;-75
2021/04/19 11:39:12;;;;;;;;;;;;;;;20.29;38.95;101890.25;4974091;28;19918;-74
2021/04/19 11:41:37;;;;;;;;;;;;;;;20.37;40.01;101895.50;4974187;28;20359;-75
2021/04/19 11:44:03;;;;;;;;;;;;;;;19.91;39.36;101894.16;4974183;28;19918;-75
2021/04/19 11:46:28;;;;;;;;;;;;;;;20.15;38.57;101895.56;4957219;28;20267;-74
2021/04/19 11:48:53;;;;;;;;;;;;;;;19.01;41.07;101887.44;4973715;28;19984;-74
2021/04/19 11:51:19;;;;;;;;;;;;;;;19.26;41.25;101887.06;4973259;28;20424;-74
2021/04/19 11:53:45;;;;;;;;;;;;;;;19.50;39.50;101891.25;4957222;28;19918;-74
2021/04/19 11:56:12;;;;;;;;;;;;;;;19.79;40.97;101887.59;4973052;28;19914;-74
2021/04/19 11:58:42;;;;;;;;;;;;;;;19.74;39.57;101881.94;4973691;28;19914;-75
2021/04/19 12:01:08;;;;;;;;;;;;;;;18.94;40.15;101884.66;4973994;28;19924;-74
2021/04/19 12:03:33;;;;;;;;;;;;;;;19.65;39.50;101883.91;4974065;28;20492;-74
2021/04/19 12:05:58;;;;;;;;;;;;;;;19.78;38.84;101889.47;4973815;28;19922;-75
2021/04/19 12:08:23;;;;;;;;;;;;;;;20.28;38.85;101885.88;4972760;28;19914;-75
2021/04/19 12:10:49;;;;;;;;;;;;;;;20.00;38.84;101882.13;4973705;28;20751;-74
2021/04/19 12:13:15;;;;;;;;;;;;;;;20.21;38.70;101885.81;4956892;28;20020;-75
2021/04/19 12:15:41;;;;;;;;;;;;;;;19.89;38.37;101879.13;4973556;28;19928;-75
2021/04/19 12:18:06;;;;;;;;;;;;;;;20.09;37.76;101876.53;4973482;28;20358;-75
2021/04/19 12:20:31;;;;;;;;;;;;;;;19.52;38.52;101878.38;4976240;28;19960;-75
2021/04/19 12:22:57;;;;;;;;;;;;;;;19.95;37.72;101879.19;4974233;28;19914;-75
2021/04/19 12:25:22;;;;;;;;;;;;;;;20.05;37.67;101868.00;4974263;28;20009;-66
2021/04/19 12:27:47;;;;;;;;;;;;;;;19.92;37.95;101879.56;4954982;28;20451;-66
2021/04/19 12:30:13;;;;;;;;;;;;;;;19.53;37.53;101861.09;4973313;28;19914;-66
2021/04/19 12:32:38;;;;;;;;;;;;;;;19.82;37.70;101871.78;4972598;28;19914;-66
2021/04/19 12:35:03;;;;;;;;;;;;;;;19.69;35.84;101868.13;4973413;28;19914;-66
2021/04/19 12:37:29;;;;;;;;;;;;;;;19.81;37.00;101863.88;4973051;28;20425;-66
2021/04/19 12:39:54;;;;;;;;;;;;;;;18.97;36.56;101865.31;4956172;28;19929;-66
2021/04/19 12:42:19;;;;;;;;;;;;;;;18.83;36.07;101860.78;4971158;28;19945;-66
2021/04/19 12:44:44;;;;;;;;;;;;;;;19.51;36.64;101865.88;4956164;28;20004;-65
2021/04/19 12:47:10;;;;;;;;;;;;;;;19.21;36.40;101859.75;4956277;28;20064;-66